createdAt,value
2023-01-29T00:00:12.858Z,101268.94
2023-01-29T00:05:26.972Z,101281.75
2023-01-29T00:10:29.347Z,101291.19
2023-01-29T00:15:30.953Z,101298.03
2023-01-29T00:20:32.540Z,101286.88
2023-01-29T00:25:34.133Z,101286.00
2023-01-29T00:30:36.772Z,101279.13
2023-01-29T00:35:40.152Z,101282.50
2023-01-29T00:41:00.576Z,101284.13
2023-01-29T00:46:02.193Z,101266.91
2023-01-29T00:51:04.217Z,101266.78
2023-01-29T00:56:06.212Z,101259.84
2023-01-29T01:01:07.826Z,101244.31
2023-01-29T01:06:11.037Z,101245.06
2023-01-29T01:11:12.631Z,101223.59
2023-01-29T01:16:17.034Z,101220.03
2023-01-29T01:21:18.655Z,101212.28
2023-01-29T01:26:20.230Z,101219.09
2023-01-29T01:31:21.955Z,101219.00
2023-01-29T01:36:23.613Z,101212.13
2023-01-29T01:41:25.400Z,101212.88
2023-01-29T01:46:32.069Z,101210.25
2023-01-29T01:51:37.520Z,101217.81
2023-01-29T01:56:44.275Z,101218.66
2023-01-29T02:01:52.223Z,101212.78
2023-01-29T02:07:14.318Z,101218.81
2023-01-29T02:12:17.083Z,101219.69
2023-01-29T02:17:20.274Z,101227.41
2023-01-29T02:22:40.622Z,101243.72
2023-01-29T02:27:55.453Z,101256.59
2023-01-29T02:33:11.142Z,101251.50
2023-01-29T02:38:33.051Z,101246.47
2023-01-29T02:43:55.724Z,101248.31
2023-01-29T02:49:04.857Z,101238.97
2023-01-29T02:54:43.102Z,101221.03
2023-01-29T02:59:54.959Z,101218.41
2023-01-29T03:05:01.735Z,101214.13
2023-01-29T03:10:12.040Z,101210.66
2023-01-29T03:15:25.039Z,101213.94
2023-01-29T03:20:32.770Z,101210.44
2023-01-29T03:25:55.529Z,101201.00
2023-01-29T03:31:22.019Z,101212.75
2023-01-29T03:36:38.179Z,101240.53
2023-01-29T03:42:01.292Z,101233.50
2023-01-29T03:47:21.043Z,101217.25
2023-01-29T03:52:39.183Z,101226.53
2023-01-29T03:58:00.976Z,101239.13
2023-01-29T04:03:17.829Z,101239.03
2023-01-29T04:08:27.602Z,101227.91
2023-01-29T04:13:33.788Z,101237.34
2023-01-29T04:18:36.403Z,101244.16
2023-01-29T04:23:38.093Z,101249.47
2023-01-29T04:29:07.570Z,101251.22
2023-01-29T04:34:18.147Z,101244.78
2023-01-29T04:39:32.041Z,101239.00
2023-01-29T04:44:54.475Z,101221.31
2023-01-29T04:50:11.689Z,101203.50
2023-01-29T04:55:30.036Z,101193.03
2023-01-29T05:00:35.709Z,101190.47
2023-01-29T05:05:41.642Z,101199.63
2023-01-29T05:10:43.305Z,101192.66
2023-01-29T05:15:53.158Z,101204.59
2023-01-29T05:20:57.369Z,101206.44
2023-01-29T05:25:59.185Z,101213.38
2023-01-29T05:31:00.880Z,101226.19
2023-01-29T05:36:02.593Z,101215.38
2023-01-29T05:41:04.191Z,101216.28
2023-01-29T05:46:05.800Z,101219.78
2023-01-29T05:51:07.403Z,101210.38
2023-01-29T05:56:09.029Z,101206.06
2023-01-29T06:01:16.535Z,101210.31
2023-01-29T06:06:18.164Z,101206.00
2023-01-29T06:11:20.634Z,101200.94
2023-01-29T06:16:22.270Z,101190.03
2023-01-29T06:21:23.876Z,101167.94
2023-01-29T06:26:25.465Z,101166.16
2023-01-29T06:31:38.657Z,101170.41
2023-01-29T06:36:41.893Z,101159.34
2023-01-29T06:41:45.384Z,101159.25
2023-01-29T06:46:46.993Z,101187.28
2023-01-29T06:51:48.705Z,101195.81
2023-01-29T06:56:50.388Z,101211.13
2023-01-29T07:01:52.092Z,101202.69
2023-01-29T07:06:53.729Z,101212.22
2023-01-29T07:11:55.310Z,101226.00
2023-01-29T07:16:56.887Z,101224.28
2023-01-29T07:22:02.380Z,101208.19
2023-01-29T07:27:03.992Z,101217.72
2023-01-29T07:32:06.122Z,101209.19
2023-01-29T07:37:07.948Z,101204.88
2023-01-29T07:42:09.593Z,101227.03
2023-01-29T07:47:12.360Z,101223.69
2023-01-29T07:52:13.955Z,101215.22
2023-01-29T07:57:15.528Z,101228.97
2023-01-29T08:02:17.214Z,101227.09
2023-01-29T08:07:18.868Z,101233.91
2023-01-29T08:12:20.498Z,101239.91
2023-01-29T08:17:22.095Z,101239.84
2023-01-29T08:22:23.676Z,101237.34
2023-01-29T08:27:25.344Z,101228.16
2023-01-29T08:32:27.105Z,101241.09
2023-01-29T08:37:28.687Z,101236.00
2023-01-29T08:42:30.316Z,101236.00
2023-01-29T08:47:31.916Z,101237.75
2023-01-29T08:52:33.508Z,101234.34
2023-01-29T08:57:35.248Z,101225.06
2023-01-29T09:02:37.792Z,101237.09
2023-01-29T09:07:39.518Z,101245.59
2023-01-29T09:12:41.114Z,101239.66
2023-01-29T09:17:43.256Z,101253.31
2023-01-29T09:22:45.104Z,101249.13
2023-01-29T09:27:46.729Z,101253.41
2023-01-29T09:32:55.495Z,101280.72
2023-01-29T09:37:57.711Z,101285.91
2023-01-29T09:43:07.170Z,101279.25
2023-01-29T09:48:13.344Z,101269.06
2023-01-29T09:53:24.548Z,101276.78
2023-01-29T09:58:44.233Z,101262.22
2023-01-29T10:04:08.798Z,101221.94
2023-01-29T10:09:16.131Z,101219.38
2023-01-29T10:14:23.867Z,101210.78
2023-01-29T10:19:34.437Z,101198.75
2023-01-29T10:24:48.401Z,101191.00
2023-01-29T10:29:54.314Z,101181.56
2023-01-29T10:35:01.779Z,101181.53
2023-01-29T10:40:12.751Z,101178.94
2023-01-29T10:45:26.224Z,101172.97
2023-01-29T10:51:01.844Z,101154.06
2023-01-29T10:56:20.904Z,101139.38
2023-01-29T11:01:24.244Z,101141.03
2023-01-29T11:06:25.908Z,101143.66
2023-01-29T11:11:59.445Z,101138.53
2023-01-29T11:17:01.098Z,101129.19
2023-01-29T11:22:04.428Z,101123.22
2023-01-29T11:27:20.733Z,101115.50
2023-01-29T11:32:22.299Z,101118.13
2023-01-29T11:37:31.361Z,101106.09
2023-01-29T11:42:33.856Z,101102.66
2023-01-29T11:47:35.688Z,101090.66
2023-01-29T11:52:40.991Z,101075.22
2023-01-29T11:57:46.870Z,101078.66
2023-01-29T12:03:19.416Z,101054.63
2023-01-29T12:08:23.567Z,101059.78
2023-01-29T12:13:28.495Z,101040.91
2023-01-29T12:18:42.627Z,101040.03
2023-01-29T12:23:57.886Z,101028.00
2023-01-29T12:29:12.506Z,101001.28
2023-01-29T12:34:46.379Z,100994.50
2023-01-29T12:39:50.114Z,100989.41
2023-01-29T12:44:51.633Z,100986.06
2023-01-29T12:49:57.871Z,100984.34
2023-01-29T12:55:06.512Z,100974.00
2023-01-29T13:00:24.028Z,100962.00
2023-01-29T13:05:36.753Z,100956.88
2023-01-29T13:10:43.126Z,100948.28
2023-01-29T13:15:45.929Z,100943.09
2023-01-29T13:20:49.864Z,100942.22
2023-01-29T13:25:55.186Z,100955.94
2023-01-29T13:31:28.521Z,100944.75
2023-01-29T13:36:31.817Z,100946.41
2023-01-29T13:41:37.140Z,100948.19
2023-01-29T13:46:41.608Z,100942.22
2023-01-29T13:51:43.506Z,100937.06
2023-01-29T13:56:59.247Z,100935.31
2023-01-29T14:02:03.961Z,100926.66
2023-01-29T14:07:43.575Z,100914.63
2023-01-29T14:12:46.736Z,100894.81
2023-01-29T14:18:14.607Z,100884.50
2023-01-29T14:23:31.238Z,100880.97
2023-01-29T14:28:34.911Z,100881.78
2023-01-29T14:33:43.383Z,100877.53
2023-01-29T14:38:51.094Z,100878.44
2023-01-29T14:44:32.436Z,100871.63
2023-01-29T14:49:54.775Z,100872.47
2023-01-29T14:55:01.650Z,100846.66
2023-01-29T15:00:07.254Z,100832.16
2023-01-29T15:05:18.109Z,100833.84
2023-01-29T15:10:45.640Z,100825.38
2023-01-29T15:16:04.537Z,100823.63
2023-01-29T15:21:13.168Z,100822.78
2023-01-29T15:26:21.139Z,100812.50
2023-01-29T15:31:22.969Z,100802.34
2023-01-29T15:36:28.976Z,100820.38
2023-01-29T15:41:30.679Z,100816.09
2023-01-29T15:46:37.609Z,100814.38
2023-01-29T15:51:39.695Z,100804.16
2023-01-29T15:56:45.683Z,100814.47
2023-01-29T16:01:47.462Z,100836.88
2023-01-29T16:06:52.888Z,100833.44
2023-01-29T16:11:58.772Z,100840.34
2023-01-29T16:17:23.331Z,100845.50
2023-01-29T16:22:29.306Z,100852.41
2023-01-29T16:27:32.446Z,100858.41
2023-01-29T16:32:34.177Z,100859.25
2023-01-29T16:37:36.466Z,100858.38
2023-01-29T16:42:38.614Z,100853.25
2023-01-29T16:47:43.719Z,100857.53
2023-01-29T16:53:03.007Z,100864.38
2023-01-29T16:58:14.031Z,100866.06
2023-01-29T17:03:17.846Z,100878.03
2023-01-29T17:08:42.860Z,100878.84
2023-01-29T17:13:45.933Z,100884.81
2023-01-29T17:18:47.558Z,100887.38
2023-01-29T17:23:49.647Z,100881.38
2023-01-29T17:28:52.460Z,100876.22
2023-01-29T17:33:54.048Z,100877.06
2023-01-29T17:38:55.632Z,100869.34
2023-01-29T17:43:57.239Z,100859.03
2023-01-29T17:48:58.844Z,100853.06
2023-01-29T17:54:00.420Z,100845.38
2023-01-29T17:59:02.052Z,100837.66
2023-01-29T18:04:03.898Z,100829.94
2023-01-29T18:09:06.112Z,100833.38
2023-01-29T18:14:13.995Z,100835.91
2023-01-29T18:19:23.112Z,100826.50
2023-01-29T18:24:26.594Z,100823.13
2023-01-29T18:29:30.316Z,100823.16
2023-01-29T18:34:31.979Z,100820.63
2023-01-29T18:39:33.664Z,100819.81
2023-01-29T18:44:35.275Z,100810.41
2023-01-29T18:49:39.893Z,100810.41
2023-01-29T18:54:42.605Z,100797.53
2023-01-29T18:59:44.454Z,100785.56
2023-01-29T19:04:46.922Z,100789.88
2023-01-29T19:09:50.555Z,100785.56
2023-01-29T19:14:52.281Z,100775.31
2023-01-29T19:19:56.362Z,100787.31
2023-01-29T19:24:58.201Z,100789.88
2023-01-29T19:29:59.925Z,100779.63
2023-01-29T19:35:01.576Z,100771.09
2023-01-29T19:40:03.427Z,100787.34
2023-01-29T19:45:05.647Z,100765.94
2023-01-29T19:50:08.810Z,100766.81
2023-01-29T19:55:10.586Z,100751.38
2023-01-29T20:00:12.719Z,100741.06
2023-01-29T20:05:17.605Z,100731.63
2023-01-29T20:10:20.061Z,100722.22
2023-01-29T20:15:22.847Z,100716.22
2023-01-29T20:20:24.682Z,100713.63
2023-01-29T20:25:33.047Z,100714.47
2023-01-29T20:30:35.241Z,100704.13
2023-01-29T20:35:37.409Z,100698.97
2023-01-29T20:40:38.996Z,100694.63
2023-01-29T20:45:40.664Z,100680.09
2023-01-29T20:50:42.987Z,100679.25
2023-01-29T20:55:45.569Z,100680.16
2023-01-29T21:00:47.791Z,100672.44
2023-01-29T21:05:50.362Z,100663.00
2023-01-29T21:10:52.861Z,100655.28
2023-01-29T21:15:54.476Z,100629.56
2023-01-29T21:20:56.619Z,100622.63
2023-01-29T21:26:05.126Z,100601.19
2023-01-29T21:31:14.414Z,100585.78
2023-01-29T21:36:16.092Z,100558.38
2023-01-29T21:41:17.683Z,100538.66
2023-01-29T21:46:19.306Z,100548.03
2023-01-29T21:51:20.951Z,100548.00
2023-01-29T21:56:22.564Z,100550.47
2023-01-29T22:01:37.393Z,100542.03
2023-01-29T22:06:40.184Z,100522.31
2023-01-29T22:11:41.811Z,100529.13
2023-01-29T22:16:43.430Z,100519.66
2023-01-29T22:21:45.061Z,100499.06
2023-01-29T22:26:48.546Z,100515.34
2023-01-29T22:31:51.019Z,100522.22
2023-01-29T22:36:52.794Z,100511.94
2023-01-29T22:41:54.415Z,100503.31
2023-01-29T22:46:56.013Z,100467.31
2023-01-29T22:52:12.894Z,100485.25
2023-01-29T22:57:15.216Z,100490.34
2023-01-29T23:02:16.819Z,100507.53
2023-01-29T23:07:18.425Z,100496.38
2023-01-29T23:12:20.028Z,100478.41
2023-01-29T23:17:21.642Z,100491.19
2023-01-29T23:22:23.339Z,100488.56
2023-01-29T23:27:24.946Z,100480.00
2023-01-29T23:32:26.546Z,100485.16
2023-01-29T23:37:28.160Z,100485.97
2023-01-29T23:42:29.743Z,100480.94
2023-01-29T23:47:31.356Z,100474.91
2023-01-29T23:52:32.954Z,100454.50
2023-01-29T23:57:34.555Z,100438.16
